KMXF/MXF METAR and TAF weather

Enter ICAO airport designator
Station Type Date Time Source
KMXF METAR 2020/06/05 07:56 UTC NOAA

KMXF 050756Z AUTO 00000KT 10SM CLR 21/21 A2995 RMK AO2 SLP143 T02140207


Station Type Date Time Source
KMXF Decoded METAR 2020/06/05 07:56 UTC NOAA

Maxwell Air Force Base / Montgomery, AL, United States (KMXF) 32-23N 086-22W
Jun 05, 2020 - 03:56 AM EDT / 2020.06.05 0756 UTC
Wind: Calm:0
Visibility: 10 mile(s):0
Sky conditions: clear
Temperature: 70.5 F (21.4 C)
Dew Point: 69.3 F (20.7 C)
Relative Humidity: 95%
Pressure (altimeter): 29.95 in. Hg (1014 hPa)
ob: KMXF 050756Z AUTO 00000KT 10SM CLR 21/21 A2995 RMK AO2 SLP143 T02140207
cycle: 8

Station Type Date Time Source
KMXF TAF 2020/06/04 19:12 UTC NOAA

TAF KMXF 041900Z 0419/0601 18006KT 9999 VCTS SCT030CB BKN150 QNH2988INS
BECMG 0502/0503 18007KT 9999 NSW SCT050 BKN080 QNH2990INS
BECMG 0518/0519 VRB06KT 9000 -SHRA BKN040 QNH2992INS
BECMG 0523/0524 VRB06KT 9000 -SHRA FEW020 QNH2994INS
TEMPO 0523/0601 VRB15G25KT 9000 -TSRA OVC020CB TX31/0517Z TN21/0508Z LAST NO
AMDS AFT 0503 NEXT 0511

Example: see airport list